Terminal Aerodrome Forecast
Issued by NWS Upton, NY

Home | Current Version | Previous Version | Text Only | Print | Product List | Glossary On
Versions: 1 2 3 4 5 6 7 8 9 10 11 12 13 14 15 16 17 18 19 20 21 22 23 24
800
FTUS41 KOKX 140850 AAA
TAFLGA
TAF AMD
KLGA 140850Z 1409/1506 31020G30KT P6SM FEW050 FEW250
     FM141600 32012G20KT P6SM SKC
     FM142200 31008KT P6SM SKC
     FM150100 29004KT P6SM SKC=

USA.gov is the U.S. government's official web portal to all federal, state and local government web resources and services.